createdAt,value
2017-12-03T00:00:11.904Z,2.40
2017-12-03T00:02:39.458Z,2.50
2017-12-03T00:05:06.982Z,2.50
2017-12-03T00:07:34.523Z,2.40
2017-12-03T00:10:02.838Z,2.30
2017-12-03T00:12:30.429Z,2.30
2017-12-03T00:14:58.036Z,2.30
2017-12-03T00:17:26.152Z,2.30
2017-12-03T00:19:53.739Z,2.20
2017-12-03T00:22:22.044Z,2.20
2017-12-03T00:24:49.579Z,2.20
2017-12-03T00:27:20.348Z,2.20
2017-12-03T00:29:47.890Z,2.20
2017-12-03T00:32:15.424Z,2.30
2017-12-03T00:34:43.058Z,2.20
2017-12-03T00:37:11.392Z,2.10
2017-12-03T00:39:38.937Z,2.10
2017-12-03T00:42:08.183Z,2.20
2017-12-03T00:44:36.291Z,2.10
2017-12-03T00:47:04.825Z,2.10
2017-12-03T00:49:32.401Z,2.10
2017-12-03T00:51:59.979Z,2.20
2017-12-03T00:54:27.526Z,2.20
2017-12-03T00:56:55.073Z,2.20
2017-12-03T00:59:22.621Z,2.20
2017-12-03T01:01:50.155Z,2.20
2017-12-03T01:04:17.716Z,2.30
2017-12-03T01:06:46.047Z,2.30
2017-12-03T01:09:13.625Z,2.30
2017-12-03T01:11:41.153Z,2.30
2017-12-03T01:14:08.673Z,2.30
2017-12-03T01:16:36.234Z,2.20
2017-12-03T01:19:04.559Z,2.30
2017-12-03T01:21:32.132Z,2.30
2017-12-03T01:23:59.720Z,2.20
2017-12-03T01:26:27.319Z,2.30
2017-12-03T01:28:54.845Z,2.30
2017-12-03T01:31:22.383Z,2.20
2017-12-03T01:33:50.641Z,2.20
2017-12-03T01:36:18.167Z,2.20
2017-12-03T01:38:45.752Z,2.20
2017-12-03T01:41:13.345Z,2.20
2017-12-03T01:43:40.905Z,2.20
2017-12-03T01:46:08.516Z,2.10
2017-12-03T01:48:36.188Z,2.10
2017-12-03T01:51:03.748Z,2.10
2017-12-03T01:53:31.317Z,2.10
2017-12-03T01:55:58.803Z,2.10
2017-12-03T01:58:27.191Z,2.00
2017-12-03T02:00:55.503Z,2.10
2017-12-03T02:03:23.111Z,2.10
2017-12-03T02:05:50.699Z,2.00
2017-12-03T02:08:19.073Z,1.90
2017-12-03T02:10:46.776Z,1.90
2017-12-03T02:13:14.348Z,1.90
2017-12-03T02:15:41.899Z,2.00
2017-12-03T02:18:09.961Z,2.00
2017-12-03T02:20:37.517Z,2.00
2017-12-03T02:23:05.105Z,2.00
2017-12-03T02:25:32.655Z,2.10
2017-12-03T02:28:01.000Z,1.90
2017-12-03T02:30:28.549Z,1.90
2017-12-03T02:32:56.882Z,1.80
2017-12-03T02:35:25.245Z,1.80
2017-12-03T02:37:52.777Z,1.80
2017-12-03T02:40:20.370Z,1.80
2017-12-03T02:42:48.846Z,1.80
2017-12-03T02:45:16.391Z,1.80
2017-12-03T02:47:43.935Z,1.80
2017-12-03T02:50:12.429Z,1.80
2017-12-03T02:52:39.978Z,1.80
2017-12-03T02:55:08.306Z,1.80
2017-12-03T02:57:35.852Z,1.80
2017-12-03T03:00:03.454Z,1.70
2017-12-03T03:02:31.782Z,1.40
2017-12-03T03:04:59.357Z,1.40
2017-12-03T03:07:26.934Z,1.50
2017-12-03T03:09:55.246Z,1.70
2017-12-03T03:12:22.815Z,1.70
2017-12-03T03:14:50.399Z,1.70
2017-12-03T03:17:17.959Z,1.80
2017-12-03T03:19:45.489Z,1.70
2017-12-03T03:22:13.120Z,1.80
2017-12-03T03:24:40.633Z,1.80
2017-12-03T03:27:08.155Z,1.80
2017-12-03T03:29:36.524Z,1.90
2017-12-03T03:32:04.046Z,1.90
2017-12-03T03:34:31.585Z,1.90
2017-12-03T03:36:59.150Z,2.00
2017-12-03T03:39:26.725Z,2.00
2017-12-03T03:41:54.231Z,2.10
2017-12-03T03:44:22.572Z,2.00
2017-12-03T03:46:50.079Z,2.00
2017-12-03T03:49:17.620Z,1.90
2017-12-03T03:51:45.928Z,1.90
2017-12-03T03:54:13.475Z,1.90
2017-12-03T03:56:41.033Z,2.00
2017-12-03T03:59:08.606Z,2.10
2017-12-03T04:01:36.242Z,2.10
2017-12-03T04:04:03.793Z,2.00
2017-12-03T04:06:31.349Z,2.00
2017-12-03T04:08:59.700Z,2.00
2017-12-03T04:11:27.260Z,2.00
2017-12-03T04:13:54.852Z,2.10
2017-12-03T04:16:23.426Z,1.90
2017-12-03T04:18:50.982Z,1.90
2017-12-03T04:21:18.512Z,2.00
2017-12-03T04:23:46.078Z,2.10
2017-12-03T04:26:13.583Z,2.10
2017-12-03T04:28:41.133Z,2.10
2017-12-03T04:31:08.663Z,2.10
2017-12-03T04:33:36.219Z,2.20
2017-12-03T04:36:03.776Z,2.20
2017-12-03T04:38:31.329Z,2.20
2017-12-03T04:40:58.882Z,2.10
2017-12-03T04:43:26.438Z,2.20
2017-12-03T04:45:53.970Z,2.20
2017-12-03T04:48:21.528Z,2.20
2017-12-03T04:50:49.930Z,2.00
2017-12-03T04:53:17.502Z,2.00
2017-12-03T04:55:45.054Z,2.00
2017-12-03T04:58:13.352Z,2.00
2017-12-03T05:00:40.937Z,2.00
2017-12-03T05:03:09.783Z,2.10
2017-12-03T05:05:37.330Z,2.10
2017-12-03T05:08:04.948Z,2.10
2017-12-03T05:10:32.583Z,2.20
2017-12-03T05:13:00.182Z,2.30
2017-12-03T05:15:28.507Z,2.40
2017-12-03T05:17:56.055Z,2.40
2017-12-03T05:20:23.618Z,2.40
2017-12-03T05:22:51.170Z,2.40
2017-12-03T05:25:18.762Z,2.40
2017-12-03T05:27:46.320Z,2.50
2017-12-03T05:30:13.960Z,2.50
2017-12-03T05:32:41.470Z,2.50
2017-12-03T05:35:09.286Z,2.50
2017-12-03T05:37:36.888Z,2.50
2017-12-03T05:40:04.495Z,2.50
2017-12-03T05:42:32.111Z,2.50
2017-12-03T05:44:59.767Z,2.50
2017-12-03T05:47:27.352Z,2.40
2017-12-03T05:49:55.707Z,2.30
2017-12-03T05:52:23.286Z,2.20
2017-12-03T05:54:51.568Z,2.20
2017-12-03T05:57:19.126Z,2.20
2017-12-03T05:59:47.448Z,2.40
2017-12-03T06:02:15.306Z,2.30
2017-12-03T06:04:42.887Z,2.40
2017-12-03T06:07:11.461Z,2.40
2017-12-03T06:09:39.044Z,2.30
2017-12-03T06:12:06.590Z,2.40
2017-12-03T06:14:34.122Z,2.50
2017-12-03T06:17:01.746Z,2.40
2017-12-03T06:19:29.437Z,2.50
2017-12-03T06:21:57.042Z,2.50
2017-12-03T06:24:25.426Z,2.60
2017-12-03T06:26:52.980Z,2.50
2017-12-03T06:29:20.619Z,2.50
2017-12-03T06:31:48.159Z,2.50
2017-12-03T06:34:15.718Z,2.50
2017-12-03T06:36:43.293Z,2.60
2017-12-03T06:39:11.858Z,2.60
2017-12-03T06:41:39.470Z,2.60
2017-12-03T06:44:07.010Z,2.70
2017-12-03T06:46:34.606Z,2.50
2017-12-03T06:49:02.202Z,2.40
2017-12-03T06:51:30.205Z,2.50
2017-12-03T06:53:57.816Z,2.60
2017-12-03T06:56:25.435Z,2.50
2017-12-03T06:58:53.013Z,2.40
2017-12-03T07:01:20.567Z,2.40
2017-12-03T07:03:48.926Z,2.50
2017-12-03T07:06:16.513Z,2.50
2017-12-03T07:08:44.118Z,2.50
2017-12-03T07:11:12.478Z,2.40
2017-12-03T07:13:40.752Z,2.50
2017-12-03T07:16:09.366Z,2.50
2017-12-03T07:18:36.976Z,2.50
2017-12-03T07:21:04.568Z,2.60
2017-12-03T07:23:32.122Z,2.60
2017-12-03T07:25:59.788Z,2.70
2017-12-03T07:28:27.331Z,2.50
2017-12-03T07:30:55.723Z,2.70
2017-12-03T07:33:23.352Z,2.70
2017-12-03T07:35:51.653Z,2.60
2017-12-03T07:38:19.263Z,2.60
2017-12-03T07:40:46.885Z,2.70
2017-12-03T07:43:15.200Z,2.60
2017-12-03T07:45:42.727Z,2.60
2017-12-03T07:48:10.507Z,2.60
2017-12-03T07:50:38.101Z,2.60
2017-12-03T07:53:05.694Z,2.60
2017-12-03T07:55:34.002Z,2.60
2017-12-03T07:58:01.591Z,2.60
2017-12-03T08:00:29.137Z,2.70
2017-12-03T08:02:57.010Z,2.60
2017-12-03T08:05:24.543Z,2.70
2017-12-03T08:07:52.123Z,2.70
2017-12-03T08:10:19.738Z,2.70
2017-12-03T08:12:48.240Z,2.90
2017-12-03T08:15:15.800Z,2.90
2017-12-03T08:17:43.487Z,2.90
2017-12-03T08:20:11.506Z,3.00
2017-12-03T08:22:39.499Z,3.00
2017-12-03T08:25:07.857Z,2.90
2017-12-03T08:27:35.424Z,2.90
2017-12-03T08:30:03.806Z,2.90
2017-12-03T08:32:32.142Z,2.90
2017-12-03T08:34:59.723Z,2.90
2017-12-03T08:37:27.300Z,2.80
2017-12-03T08:39:54.965Z,2.70
2017-12-03T08:42:22.532Z,2.60
2017-12-03T08:44:50.158Z,2.70
2017-12-03T08:47:17.714Z,2.60
2017-12-03T08:49:45.342Z,2.50
2017-12-03T08:52:13.001Z,2.40
2017-12-03T08:54:40.594Z,2.40
2017-12-03T08:57:08.366Z,2.50
2017-12-03T08:59:36.311Z,2.50
2017-12-03T09:02:03.959Z,2.50
2017-12-03T09:04:31.600Z,2.50
2017-12-03T09:06:59.163Z,2.50
2017-12-03T09:09:26.755Z,2.40
2017-12-03T09:11:54.375Z,2.50
2017-12-03T09:14:21.979Z,2.50
2017-12-03T09:16:49.586Z,2.50
2017-12-03T09:19:18.166Z,2.50
2017-12-03T09:21:46.523Z,2.60
2017-12-03T09:24:14.043Z,2.60
2017-12-03T09:26:41.741Z,2.60
2017-12-03T09:29:09.898Z,2.70
2017-12-03T09:31:37.535Z,2.60
2017-12-03T09:34:05.285Z,2.60
2017-12-03T09:36:33.607Z,2.60
2017-12-03T09:39:01.154Z,2.60
2017-12-03T09:41:28.907Z,2.70
2017-12-03T09:43:56.480Z,2.60
2017-12-03T09:46:24.057Z,2.70
2017-12-03T09:48:51.631Z,2.70
2017-12-03T09:51:21.662Z,2.70
2017-12-03T09:53:50.031Z,2.60
2017-12-03T09:56:17.625Z,2.60
2017-12-03T09:58:45.265Z,2.70
2017-12-03T10:01:14.357Z,2.60
2017-12-03T10:03:42.020Z,2.60
2017-12-03T10:06:10.211Z,2.60
2017-12-03T10:08:38.242Z,2.70
2017-12-03T10:11:06.421Z,2.70
2017-12-03T10:13:34.070Z,2.70
2017-12-03T10:16:01.617Z,2.70
2017-12-03T10:18:29.164Z,2.80
2017-12-03T10:20:57.857Z,2.70
2017-12-03T10:23:25.395Z,2.80
2017-12-03T10:25:52.935Z,2.80
2017-12-03T10:28:21.573Z,3.00
2017-12-03T10:30:49.356Z,2.90
2017-12-03T10:33:16.906Z,3.00
2017-12-03T10:35:45.442Z,3.00
2017-12-03T10:38:20.804Z,3.00
2017-12-03T10:40:49.138Z,3.00
2017-12-03T10:43:16.743Z,3.10
2017-12-03T10:45:44.287Z,3.10
2017-12-03T10:48:12.622Z,3.10
2017-12-03T10:50:40.174Z,3.10
2017-12-03T10:53:08.507Z,3.10
2017-12-03T10:55:36.197Z,3.10
2017-12-03T10:58:04.455Z,3.10
2017-12-03T11:00:35.874Z,3.10
2017-12-03T11:03:04.385Z,3.30
2017-12-03T11:05:31.991Z,3.30
2017-12-03T11:07:59.587Z,3.20
2017-12-03T11:10:28.059Z,3.30
2017-12-03T11:12:55.654Z,3.30
2017-12-03T11:15:23.219Z,3.40
2017-12-03T11:17:52.936Z,3.40
2017-12-03T11:20:21.398Z,3.50
2017-12-03T11:22:50.250Z,3.60
2017-12-03T11:25:18.620Z,3.60
2017-12-03T11:27:47.577Z,3.50
2017-12-03T11:30:15.349Z,3.50
2017-12-03T11:32:43.149Z,3.50
2017-12-03T11:35:11.153Z,3.50
2017-12-03T11:37:38.879Z,3.50
2017-12-03T11:40:06.665Z,3.60
2017-12-03T11:42:34.232Z,3.60
2017-12-03T11:45:02.376Z,3.50
2017-12-03T11:47:30.806Z,3.50
2017-12-03T11:49:58.387Z,3.50
2017-12-03T11:52:27.052Z,3.50
2017-12-03T11:54:54.569Z,3.50
2017-12-03T11:57:22.091Z,3.50
2017-12-03T11:59:50.176Z,3.40
2017-12-03T12:02:19.033Z,3.40
2017-12-03T12:04:47.381Z,3.30
2017-12-03T12:07:15.212Z,3.40
2017-12-03T12:09:42.771Z,3.40
2017-12-03T12:12:11.369Z,3.50
2017-12-03T12:14:40.922Z,3.50
2017-12-03T12:17:08.892Z,3.50
2017-12-03T12:19:36.564Z,3.50
2017-12-03T12:22:04.144Z,3.50
2017-12-03T12:24:32.584Z,3.50
2017-12-03T12:27:01.021Z,3.50
2017-12-03T12:29:29.753Z,3.50
2017-12-03T12:31:57.637Z,3.50
2017-12-03T12:34:25.177Z,3.60
2017-12-03T12:36:52.767Z,3.60
2017-12-03T12:39:20.612Z,3.50
2017-12-03T12:41:48.805Z,3.50
2017-12-03T12:44:16.347Z,3.60
2017-12-03T12:46:46.118Z,3.50
2017-12-03T12:49:13.650Z,3.40
2017-12-03T12:51:41.398Z,3.40
2017-12-03T12:54:09.817Z,3.40
2017-12-03T12:56:37.451Z,3.40
2017-12-03T12:59:05.013Z,3.30
2017-12-03T13:01:33.012Z,3.40
2017-12-03T13:04:00.741Z,3.40
2017-12-03T13:06:28.524Z,3.40
2017-12-03T13:08:56.410Z,3.50
2017-12-03T13:11:24.127Z,3.40
2017-12-03T13:13:53.327Z,3.40
2017-12-03T13:16:22.566Z,3.40
2017-12-03T13:18:50.875Z,3.40
2017-12-03T13:21:18.434Z,3.40
2017-12-03T13:23:47.608Z,3.30
2017-12-03T13:26:15.350Z,3.30
2017-12-03T13:28:43.546Z,3.20
2017-12-03T13:31:11.113Z,3.20
2017-12-03T13:33:39.685Z,3.30
2017-12-03T13:36:07.239Z,3.30
2017-12-03T13:38:35.660Z,3.40
2017-12-03T13:41:03.762Z,3.40
2017-12-03T13:43:31.287Z,3.30
2017-12-03T13:45:59.693Z,3.40
2017-12-03T13:48:27.494Z,3.30
2017-12-03T13:50:55.047Z,3.30
2017-12-03T13:53:22.680Z,3.40
2017-12-03T13:55:51.068Z,3.50
2017-12-03T13:58:19.210Z,3.40
2017-12-03T14:00:47.506Z,3.50
2017-12-03T14:03:16.305Z,3.50
2017-12-03T14:05:44.306Z,3.50
2017-12-03T14:08:12.983Z,3.50
2017-12-03T14:10:43.021Z,3.50
2017-12-03T14:13:11.636Z,3.60
2017-12-03T14:15:41.347Z,3.70
2017-12-03T14:18:09.629Z,3.60
2017-12-03T14:20:37.453Z,3.60
2017-12-03T14:23:05.059Z,3.60
2017-12-03T14:25:32.644Z,3.70
2017-12-03T14:28:01.025Z,3.50
2017-12-03T14:30:28.557Z,3.50
2017-12-03T14:32:56.127Z,3.50
2017-12-03T14:35:23.748Z,3.50
2017-12-03T14:37:51.528Z,3.60
2017-12-03T14:40:19.692Z,3.70
2017-12-03T14:42:47.838Z,3.70
2017-12-03T14:45:15.396Z,3.70
2017-12-03T14:47:42.991Z,3.60
2017-12-03T14:50:10.906Z,3.60
2017-12-03T14:52:38.599Z,3.50
2017-12-03T14:55:06.370Z,3.50
2017-12-03T14:57:35.164Z,3.30
2017-12-03T15:00:02.853Z,3.30
2017-12-03T15:02:30.456Z,3.20
2017-12-03T15:04:58.070Z,3.10
2017-12-03T15:07:26.378Z,3.20
2017-12-03T15:09:54.754Z,3.20
2017-12-03T15:12:22.279Z,3.10
2017-12-03T15:14:50.592Z,3.00
2017-12-03T15:17:18.252Z,3.00
2017-12-03T15:19:46.518Z,3.00
2017-12-03T15:22:15.231Z,3.00
2017-12-03T15:24:43.747Z,3.00
2017-12-03T15:27:13.208Z,3.00
2017-12-03T15:29:40.770Z,3.00
2017-12-03T15:32:09.363Z,3.00
2017-12-03T15:34:37.770Z,2.90
2017-12-03T15:37:05.725Z,2.90
2017-12-03T15:39:35.762Z,2.90
2017-12-03T15:42:04.618Z,2.80
2017-12-03T15:44:32.988Z,2.90
2017-12-03T15:47:00.592Z,2.80
2017-12-03T15:49:28.530Z,2.80
2017-12-03T15:51:56.196Z,2.90
2017-12-03T15:54:23.773Z,3.00
2017-12-03T15:56:51.445Z,2.90
2017-12-03T15:59:20.743Z,3.00
2017-12-03T16:01:48.716Z,2.90
2017-12-03T16:04:17.486Z,2.90
2017-12-03T16:06:45.048Z,2.80
2017-12-03T16:09:13.862Z,2.90
2017-12-03T16:11:41.406Z,2.90
2017-12-03T16:14:12.520Z,2.90
2017-12-03T16:16:40.134Z,3.00
2017-12-03T16:19:08.479Z,3.10
2017-12-03T16:21:36.063Z,3.00
2017-12-03T16:24:04.611Z,2.90
2017-12-03T16:26:32.245Z,2.90
2017-12-03T16:28:59.836Z,2.80
2017-12-03T16:31:27.525Z,2.80
2017-12-03T16:33:55.079Z,2.70
2017-12-03T16:36:24.561Z,2.60
2017-12-03T16:38:52.285Z,2.60
2017-12-03T16:41:19.830Z,2.60
2017-12-03T16:43:48.229Z,2.60
2017-12-03T16:46:15.871Z,2.60
2017-12-03T16:48:44.476Z,2.70
2017-12-03T16:51:13.640Z,2.70
2017-12-03T16:53:41.469Z,2.70
2017-12-03T16:56:09.335Z,2.70
2017-12-03T16:58:36.933Z,2.50
2017-12-03T17:01:05.531Z,2.50
2017-12-03T17:03:33.868Z,2.50
2017-12-03T17:06:01.464Z,2.50
2017-12-03T17:08:29.239Z,2.40
2017-12-03T17:10:58.258Z,2.60
2017-12-03T17:13:26.624Z,2.50
2017-12-03T17:15:54.200Z,2.50
2017-12-03T17:18:21.883Z,2.50
2017-12-03T17:20:49.485Z,2.40
2017-12-03T17:23:16.996Z,2.60
2017-12-03T17:25:44.622Z,2.60
2017-12-03T17:28:12.976Z,2.60
2017-12-03T17:30:40.979Z,2.70
2017-12-03T17:33:08.554Z,2.60
2017-12-03T17:35:36.447Z,2.60
2017-12-03T17:38:04.007Z,2.70
2017-12-03T17:40:31.599Z,2.70
2017-12-03T17:42:59.193Z,2.50
2017-12-03T17:45:26.719Z,2.60
2017-12-03T17:47:54.250Z,2.50
2017-12-03T17:50:21.933Z,2.50
2017-12-03T17:52:49.537Z,2.50
2017-12-03T17:55:17.314Z,2.50
2017-12-03T17:57:44.911Z,2.30
2017-12-03T18:00:13.364Z,2.20
2017-12-03T18:02:41.534Z,2.20
2017-12-03T18:05:10.940Z,2.20
2017-12-03T18:07:39.104Z,2.20
2017-12-03T18:10:07.394Z,2.10
2017-12-03T18:12:35.061Z,2.20
2017-12-03T18:15:02.666Z,2.00
2017-12-03T18:17:30.959Z,2.20
2017-12-03T18:19:58.569Z,2.10
2017-12-03T18:22:26.205Z,2.00
2017-12-03T18:24:54.087Z,2.00
2017-12-03T18:27:22.055Z,2.10
2017-12-03T18:29:50.558Z,2.10
2017-12-03T18:32:18.091Z,2.10
2017-12-03T18:34:45.941Z,2.20
2017-12-03T18:37:13.538Z,2.30
2017-12-03T18:39:42.085Z,2.30
2017-12-03T18:42:09.762Z,2.30
2017-12-03T18:44:37.308Z,2.30
2017-12-03T18:47:04.860Z,2.30
2017-12-03T18:49:32.501Z,2.30
2017-12-03T18:52:00.101Z,2.40
2017-12-03T18:54:27.740Z,2.40
2017-12-03T18:56:57.199Z,2.40
2017-12-03T18:59:25.208Z,2.40
2017-12-03T19:01:53.624Z,2.50
2017-12-03T19:04:21.318Z,2.40
2017-12-03T19:06:48.939Z,2.50
2017-12-03T19:09:16.609Z,2.60
2017-12-03T19:11:44.432Z,2.60
2017-12-03T19:14:13.207Z,2.60
2017-12-03T19:16:40.875Z,2.60
2017-12-03T19:19:09.187Z,2.50
2017-12-03T19:21:36.766Z,2.50
2017-12-03T19:24:04.466Z,2.60
2017-12-03T19:26:32.796Z,2.60
2017-12-03T19:29:00.423Z,2.60
2017-12-03T19:31:28.848Z,2.40
2017-12-03T19:33:56.438Z,2.40
2017-12-03T19:36:24.886Z,2.30
2017-12-03T19:38:52.520Z,2.50
2017-12-03T19:41:20.107Z,2.40
2017-12-03T19:43:47.676Z,2.40
2017-12-03T19:46:15.916Z,2.40
2017-12-03T19:48:44.324Z,2.50
2017-12-03T19:51:12.901Z,2.40
2017-12-03T19:53:40.545Z,2.50
2017-12-03T19:56:08.180Z,2.50
2017-12-03T19:58:35.788Z,2.60
2017-12-03T20:01:03.405Z,2.60
2017-12-03T20:03:31.033Z,2.70
2017-12-03T20:05:58.653Z,2.70
2017-12-03T20:08:26.454Z,2.70
2017-12-03T20:10:54.356Z,2.70
2017-12-03T20:13:22.741Z,2.80
2017-12-03T20:15:50.577Z,2.80
2017-12-03T20:18:18.221Z,2.90
2017-12-03T20:20:45.797Z,2.90
2017-12-03T20:23:13.467Z,2.80
2017-12-03T20:25:41.239Z,2.90
2017-12-03T20:28:12.177Z,2.80
2017-12-03T20:30:39.905Z,2.80
2017-12-03T20:33:07.429Z,2.80
2017-12-03T20:35:35.565Z,2.60
2017-12-03T20:38:06.154Z,2.40
2017-12-03T20:40:33.752Z,2.40
2017-12-03T20:43:01.343Z,2.50
2017-12-03T20:45:30.234Z,2.40
2017-12-03T20:47:57.780Z,2.40
2017-12-03T20:50:25.554Z,2.40
2017-12-03T20:52:53.189Z,2.40
2017-12-03T20:55:20.825Z,2.40
2017-12-03T20:57:48.598Z,2.40
2017-12-03T21:00:16.425Z,2.40
2017-12-03T21:02:45.200Z,2.40
2017-12-03T21:05:12.912Z,2.40
2017-12-03T21:07:41.014Z,2.30
2017-12-03T21:10:09.349Z,2.20
2017-12-03T21:12:36.894Z,2.30
2017-12-03T21:15:05.038Z,2.20
2017-12-03T21:17:32.596Z,2.20
2017-12-03T21:20:01.603Z,2.30
2017-12-03T21:22:29.296Z,2.30
2017-12-03T21:24:56.894Z,2.30
2017-12-03T21:27:24.486Z,2.30
2017-12-03T21:29:53.017Z,2.10
2017-12-03T21:32:20.627Z,2.10
2017-12-03T21:34:48.249Z,2.10
2017-12-03T21:37:16.920Z,2.10
2017-12-03T21:39:44.470Z,2.00
2017-12-03T21:42:12.958Z,2.10
2017-12-03T21:44:41.536Z,2.20
2017-12-03T21:47:09.311Z,2.20
2017-12-03T21:49:36.859Z,2.20
2017-12-03T21:52:04.649Z,2.10
2017-12-03T21:54:32.216Z,2.20
2017-12-03T21:56:59.838Z,2.30
2017-12-03T21:59:27.434Z,2.30
2017-12-03T22:01:55.706Z,2.30
2017-12-03T22:04:24.088Z,2.20
2017-12-03T22:06:52.005Z,2.20
2017-12-03T22:09:20.424Z,2.20
2017-12-03T22:11:47.957Z,2.20
2017-12-03T22:14:15.570Z,2.20
2017-12-03T22:16:43.106Z,2.20
2017-12-03T22:19:10.987Z,2.30
2017-12-03T22:21:39.200Z,2.30
2017-12-03T22:24:06.908Z,2.40
2017-12-03T22:26:34.441Z,2.50
2017-12-03T22:29:02.019Z,2.50
2017-12-03T22:31:31.325Z,2.40
2017-12-03T22:33:58.868Z,2.40
2017-12-03T22:36:27.847Z,2.30
2017-12-03T22:38:55.959Z,2.30
2017-12-03T22:41:23.659Z,2.30
2017-12-03T22:43:52.489Z,2.40
2017-12-03T22:46:20.074Z,2.40
2017-12-03T22:48:47.657Z,2.30
2017-12-03T22:51:15.632Z,2.40
2017-12-03T22:53:46.338Z,2.30
2017-12-03T22:56:13.893Z,2.30
2017-12-03T22:58:41.495Z,2.30
2017-12-03T23:01:09.799Z,2.30
2017-12-03T23:03:37.657Z,2.30
2017-12-03T23:06:06.308Z,2.40
2017-12-03T23:08:33.977Z,2.40
2017-12-03T23:11:04.367Z,2.30
2017-12-03T23:13:33.017Z,2.40
2017-12-03T23:16:00.628Z,2.40
2017-12-03T23:18:28.306Z,2.40
2017-12-03T23:20:55.919Z,2.40
2017-12-03T23:23:23.515Z,2.40
2017-12-03T23:25:51.208Z,2.30
2017-12-03T23:28:18.744Z,2.40
2017-12-03T23:30:46.451Z,2.30
2017-12-03T23:33:14.047Z,2.30
2017-12-03T23:35:41.623Z,2.30
2017-12-03T23:38:10.297Z,2.30
2017-12-03T23:40:38.055Z,2.40
2017-12-03T23:43:06.218Z,2.40
2017-12-03T23:45:33.841Z,2.20
2017-12-03T23:48:02.198Z,2.30
2017-12-03T23:50:29.746Z,2.20
2017-12-03T23:52:57.457Z,2.30
2017-12-03T23:55:25.814Z,2.20
2017-12-03T23:57:53.363Z,2.20
